Time;durP1;ratioP1;P1;durP2;ratioP2;P2;SDS_P1;SDS_P2;PMS_P1;PMS_P2;Temp;Humidity;BMP_temperature;BMP_pressure;BME280_temperature;BME280_humidity;BME280_pressure;Samples;Min_cycle;Max_cycle;Signal;HPM_P1;HPM_P2
2022/01/12 00:01:33;;;;;;;149.82;49.10;;;3.10;99.90;;;;;;4955075;28;20035;-55
2022/01/12 00:35:12;;;;;;;183.02;50.30;;;3.10;99.90;;;;;;5012269;28;20048;-57
2022/01/12 00:37:38;;;;;;;202.85;54.22;;;3.10;99.90;;;;;;5010464;28;20041;-56
2022/01/12 00:40:05;;;;;;;191.52;52.33;;;3.10;99.90;;;;;;4992469;28;20109;-57
2022/01/12 00:42:31;;;;;;;178.57;51.95;;;3.10;99.90;;;;;;4998183;28;20046;-54
2022/01/12 00:45:00;;;;;;;178.02;52.20;;;3.10;99.90;;;;;;4992409;28;20026;-56
2022/01/12 00:47:26;;;;;;;176.27;51.28;;;3.10;99.90;;;;;;4995041;28;20046;-56
2022/01/12 00:49:51;;;;;;;187.60;50.35;;;3.10;99.90;;;;;;4992796;28;20486;-56
2022/01/12 00:52:17;;;;;;;203.80;51.85;;;3.20;99.90;;;;;;4992503;28;20054;-55
2022/01/12 00:54:43;;;;;;;197.25;52.78;;;3.20;99.90;;;;;;5005515;28;20038;-53
2022/01/12 00:57:08;;;;;;;209.80;54.20;;;3.20;99.90;;;;;;4994466;28;20096;-55
2022/01/12 00:59:34;;;;;;;187.27;50.63;;;3.20;99.90;;;;;;5007470;28;20034;-56
2022/01/12 01:01:59;;;;;;;204.40;55.30;;;3.10;99.90;;;;;;5011875;28;20107;-56
2022/01/12 01:04:26;;;;;;;211.18;52.65;;;3.20;99.90;;;;;;5011954;28;20482;-56
2022/01/12 01:06:54;;;;;;;213.75;54.97;;;3.10;99.90;;;;;;5011779;28;20409;-53
2022/01/12 01:09:20;;;;;;;196.15;55.05;;;3.10;99.90;;;;;;4998397;28;20046;-56
2022/01/12 01:11:45;;;;;;;199.68;54.78;;;3.10;99.90;;;;;;4991384;28;20042;-54
2022/01/12 01:14:21;;;;;;;193.32;52.10;;;3.20;99.90;;;;;;4992193;28;20470;-55
2022/01/12 01:25:30;;;;;;;212.95;51.25;;;3.20;99.90;;;;;;5000007;28;20057;-55
2022/01/12 01:27:48;;;;;;;228.48;54.28;;;3.10;99.90;;;;;;4998657;28;20064;-56
2022/01/12 01:30:16;;;;;;;224.30;55.05;;;3.20;99.90;;;;;;5009052;28;20486;-57
2022/01/12 01:32:43;;;;;;;258.30;54.22;;;3.20;99.90;;;;;;5006271;28;20088;-56
2022/01/12 01:35:09;;;;;;;235.60;54.75;;;3.10;99.90;;;;;;5004810;28;20038;-55
2022/01/12 01:37:35;;;;;;;244.25;54.05;;;3.20;99.90;;;;;;4991823;28;20045;-56
2022/01/12 01:40:00;;;;;;;257.10;56.33;;;3.20;99.90;;;;;;4991986;28;20433;-53
2022/01/12 01:42:41;;;;;;;266.52;55.38;;;3.20;99.90;;;;;;4991828;28;20034;-57
2022/01/12 01:53:22;;;;;;;;;;;3.20;99.90;;;;;;5011362;28;20065;-55
2022/01/12 01:55:49;;;;;;;284.23;56.30;;;3.20;99.90;;;;;;5006438;28;19921;-55
2022/01/12 01:58:15;;;;;;;285.52;57.75;;;3.20;99.90;;;;;;5011005;28;20045;-54
2022/01/12 02:00:41;;;;;;;288.08;57.75;;;3.20;99.90;;;;;;5011053;28;20077;-57
2022/01/12 02:03:07;;;;;;;304.05;59.03;;;3.20;99.90;;;;;;5011254;28;20462;-52
2022/01/12 02:05:33;;;;;;;258.50;54.75;;;3.20;99.90;;;;;;5008660;28;20044;-56
2022/01/12 02:08:00;;;;;;;323.92;59.28;;;3.20;99.90;;;;;;5011213;28;20117;-56
2022/01/12 02:10:25;;;;;;;318.42;60.22;;;3.20;99.90;;;;;;5013250;28;20045;-54
2022/01/12 02:12:51;;;;;;;294.95;55.95;;;3.20;99.90;;;;;;5009349;28;20038;-54
2022/01/12 02:15:22;;;;;;;341.20;58.40;;;3.20;99.90;;;;;;4995511;28;20038;-56
2022/01/12 02:37:16;;;;;;;316.15;56.63;;;3.30;99.90;;;;;;4997989;28;20089;-57
2022/01/12 02:42:32;;;;;;;341.83;56.40;;;3.30;99.90;;;;;;4934629;29;20101;-53
2022/01/12 02:55:53;;;;;;;458.83;64.35;;;3.30;99.90;;;;;;5003021;28;20527;-55
2022/01/12 02:58:19;;;;;;;452.13;63.55;;;3.30;99.90;;;;;;4993897;28;20050;-55
2022/01/12 03:03:20;;;;;;;458.92;66.28;;;3.40;99.90;;;;;;4997714;28;20053;-57
2022/01/12 03:05:54;;;;;;;481.13;62.92;;;3.40;99.90;;;;;;4996418;28;20450;-57
2022/01/12 03:08:23;;;;;;;476.33;62.10;;;3.40;99.90;;;;;;4984186;28;20614;-56
2022/01/12 03:10:49;;;;;;;473.02;63.40;;;3.40;99.90;;;;;;5014180;28;20045;-54
2022/01/12 03:13:14;;;;;;;521.88;67.50;;;3.40;99.90;;;;;;5009702;28;20042;-55
2022/01/12 03:15:41;;;;;;;498.63;65.30;;;3.40;99.90;;;;;;5013739;28;20052;-55
2022/01/12 03:18:07;;;;;;;422.60;63.45;;;3.40;99.90;;;;;;5013508;28;20077;-56
2022/01/12 03:20:33;;;;;;;444.23;62.25;;;3.40;99.90;;;;;;5013113;28;20092;-55
2022/01/12 03:22:59;;;;;;;356.40;57.75;;;3.40;99.90;;;;;;5012922;28;20045;-53
2022/01/12 03:25:26;;;;;;;460.20;61.25;;;3.40;99.90;;;;;;5003806;28;20031;-58
2022/01/12 03:27:57;;;;;;;517.05;67.28;;;3.40;99.90;;;;;;4993259;28;20514;-57
2022/01/12 03:30:22;;;;;;;496.52;62.95;;;3.40;99.90;;;;;;4976579;28;20061;-56
2022/01/12 03:33:03;;;;;;;476.88;63.45;;;3.40;99.90;;;;;;4994070;28;20038;-57
2022/01/12 03:35:48;;;;;;;558.63;66.53;;;3.40;99.90;;;;;;4994192;28;20039;-58
2022/01/12 03:38:20;;;;;;;426.45;59.47;;;3.40;99.90;;;;;;4994112;28;20078;-55
2022/01/12 03:40:49;;;;;;;512.33;66.13;;;3.40;99.90;;;;;;5007771;28;20044;-55
2022/01/12 03:43:16;;;;;;;512.40;64.85;;;3.40;99.90;;;;;;5012033;28;20468;-54
2022/01/12 03:45:44;;;;;;;446.65;60.78;;;3.40;99.90;;;;;;4993814;28;20064;-56
2022/01/12 03:48:09;;;;;;;528.78;66.72;;;3.50;99.90;;;;;;5012400;28;20069;-54
2022/01/12 03:50:35;;;;;;;445.25;61.38;;;3.40;99.90;;;;;;5010225;28;20084;-57
2022/01/12 03:53:01;;;;;;;511.98;66.05;;;3.40;99.90;;;;;;5000358;28;20393;-55
2022/01/12 03:55:26;;;;;;;494.23;62.78;;;3.50;99.90;;;;;;5004327;28;20037;-57
2022/01/12 03:57:52;;;;;;;485.52;64.97;;;3.50;99.90;;;;;;5012697;28;20045;-56
2022/01/12 04:00:18;;;;;;;520.92;66.82;;;3.40;99.90;;;;;;5013069;28;20085;-55
2022/01/12 04:02:43;;;;;;;614.38;68.95;;;3.40;99.90;;;;;;4997886;28;20042;-56
2022/01/12 04:05:24;;;;;;;646.38;73.43;;;3.40;99.90;;;;;;4993567;28;20041;-55
2022/01/12 04:10:34;;;;;;;;;;;3.50;99.90;;;;;;5004041;28;20502;-57
2022/01/12 04:13:01;;;;;;;587.25;67.55;;;3.40;99.90;;;;;;4993442;28;20159;-57
2022/01/12 04:15:27;;;;;;;520.72;63.00;;;3.40;99.90;;;;;;4993223;28;20041;-55
2022/01/12 04:17:52;;;;;;;515.60;64.22;;;3.40;99.90;;;;;;4992136;28;20049;-54
2022/01/12 04:20:18;;;;;;;581.70;69.00;;;3.50;99.90;;;;;;5012592;28;20077;-53
2022/01/12 04:25:28;;;;;;;512.28;63.45;;;3.50;99.90;;;;;;5007134;28;20049;-56
2022/01/12 04:27:54;;;;;;;436.02;58.42;;;3.50;99.90;;;;;;5011933;28;20053;-57
2022/01/12 04:30:20;;;;;;;334.70;54.03;;;3.50;99.90;;;;;;5012382;28;20221;-55
2022/01/12 04:32:47;;;;;;;353.85;55.13;;;3.50;99.90;;;;;;5012015;28;20038;-55
2022/01/12 04:35:14;;;;;;;374.17;54.90;;;3.50;99.90;;;;;;5004006;28;20422;-55
2022/01/12 04:37:40;;;;;;;323.50;53.10;;;3.50;99.90;;;;;;5007169;28;20039;-56
2022/01/12 04:40:07;;;;;;;305.38;51.05;;;3.50;99.90;;;;;;4995612;28;20433;-54
2022/01/12 04:42:35;;;;;;;338.85;53.28;;;3.50;99.90;;;;;;5010485;28;20499;-54
2022/01/12 04:45:15;;;;;;;386.20;54.88;;;3.50;99.90;;;;;;5012091;28;20054;-54
2022/01/12 04:50:19;;;;;;;373.63;54.75;;;3.50;99.90;;;;;;5011860;28;20520;-56
2022/01/12 04:52:45;;;;;;;407.80;54.55;;;3.50;99.90;;;;;;5006166;28;20035;-56
2022/01/12 04:55:10;;;;;;;429.25;57.35;;;3.50;99.90;;;;;;5002153;28;20045;-55
2022/01/12 04:57:36;;;;;;;429.25;58.83;;;3.50;99.90;;;;;;5011671;28;20030;-58
2022/01/12 05:00:08;;;;;;;418.77;58.58;;;3.70;99.90;;;;;;5011961;28;20060;-56
2022/01/12 05:08:35;;;;;;;376.27;53.72;;;3.50;99.90;;;;;;4999280;28;20065;-55
2022/01/12 05:13:48;;;;;;;346.48;51.40;;;3.50;99.90;;;;;;4996285;28;20653;-55
2022/01/12 05:16:14;;;;;;;361.70;52.53;;;3.50;99.90;;;;;;4999460;28;20466;-55
2022/01/12 05:18:43;;;;;;;336.02;51.20;;;3.50;99.90;;;;;;4998923;28;20056;-55
2022/01/12 05:21:09;;;;;;;352.50;51.85;;;3.50;99.90;;;;;;5000224;28;20072;-58
2022/01/12 05:23:35;;;;;;;352.60;53.42;;;3.50;99.90;;;;;;4992106;28;20049;-56
2022/01/12 05:26:02;;;;;;;317.80;49.90;;;3.50;99.90;;;;;;5005691;28;20034;-56
2022/01/12 05:28:28;;;;;;;314.40;49.72;;;3.50;99.90;;;;;;4993199;28;20066;-56
2022/01/12 05:30:56;;;;;;;302.40;50.83;;;3.50;99.90;;;;;;5008781;28;20050;-55
2022/01/12 05:33:24;;;;;;;279.20;48.95;;;3.50;99.90;;;;;;5011832;28;20401;-56
2022/01/12 05:35:51;;;;;;;280.42;47.85;;;3.50;99.90;;;;;;4998081;28;20038;-56
2022/01/12 05:38:17;;;;;;;257.10;47.45;;;3.50;99.90;;;;;;5007033;28;20095;-56
2022/01/12 05:40:48;;;;;;;271.75;48.45;;;3.50;99.90;;;;;;5011182;28;20120;-55
2022/01/12 05:43:20;;;;;;;242.40;44.58;;;3.50;99.90;;;;;;5004528;28;20034;-54
2022/01/12 05:45:45;;;;;;;296.00;49.72;;;3.50;99.90;;;;;;5009770;28;20062;-55
2022/01/12 05:50:41;;;;;;;257.42;45.20;;;3.50;99.90;;;;;;5008286;28;20379;-57
2022/01/12 05:53:07;;;;;;;243.07;48.63;;;3.50;99.90;;;;;;5006580;28;20505;-54
2022/01/12 05:55:33;;;;;;;217.70;44.97;;;3.50;99.90;;;;;;4998000;28;20040;-57
2022/01/12 05:57:59;;;;;;;229.60;44.90;;;3.50;99.90;;;;;;5007433;28;20429;-54
2022/01/12 06:00:27;;;;;;;210.48;44.80;;;3.50;99.90;;;;;;5017887;28;20470;-56
2022/01/12 06:02:53;;;;;;;213.20;44.42;;;3.50;99.90;;;;;;4998285;28;20088;-55
2022/01/12 06:05:20;;;;;;;208.95;45.03;;;3.50;99.90;;;;;;4998378;28;20038;-56
2022/01/12 06:07:47;;;;;;;195.77;42.47;;;3.50;99.90;;;;;;4998231;28;20446;-54
2022/01/12 06:10:13;;;;;;;206.05;42.40;;;3.50;99.90;;;;;;4998239;28;20096;-56
2022/01/12 06:12:40;;;;;;;222.27;42.17;;;3.50;99.90;;;;;;5000848;28;20049;-55
2022/01/12 06:15:06;;;;;;;188.38;39.55;;;3.50;99.90;;;;;;5013337;28;20042;-54
2022/01/12 06:17:32;;;;;;;214.73;42.05;;;3.50;99.90;;;;;;5013690;28;20065;-56
2022/01/12 06:19:58;;;;;;;191.13;39.60;;;3.50;99.90;;;;;;5002964;28;20782;-55
2022/01/12 06:22:24;;;;;;;186.98;40.72;;;3.50;99.90;;;;;;5014240;28;20392;-56
2022/01/12 06:24:50;;;;;;;194.25;39.70;;;3.50;99.90;;;;;;5012779;28;20084;-56
2022/01/12 06:27:20;;;;;;;199.15;38.95;;;3.50;99.90;;;;;;5016939;28;20045;-55
2022/01/12 06:32:20;;;;;;;188.70;38.63;;;3.50;99.90;;;;;;5003118;28;20467;-55
2022/01/12 06:34:46;;;;;;;183.02;38.88;;;3.50;99.90;;;;;;4997660;28;20125;-55
2022/01/12 06:37:12;;;;;;;176.20;37.22;;;3.50;99.90;;;;;;5006664;28;20433;-53
2022/01/12 06:39:38;;;;;;;185.13;36.95;;;3.40;99.90;;;;;;5006506;28;20038;-56
2022/01/12 06:42:04;;;;;;;192.43;38.28;;;3.40;99.90;;;;;;4997889;28;20038;-55
2022/01/12 06:44:30;;;;;;;202.05;38.75;;;3.30;99.90;;;;;;4997546;28;20038;-56
2022/01/12 06:46:58;;;;;;;211.27;37.05;;;3.30;99.90;;;;;;5013358;28;20182;-57
2022/01/12 06:49:24;;;;;;;233.50;37.90;;;3.20;99.90;;;;;;5013301;28;20089;-54
2022/01/12 06:51:50;;;;;;;219.95;36.30;;;3.20;99.90;;;;;;4997877;28;20061;-56
2022/01/12 06:54:16;;;;;;;224.85;35.83;;;3.10;99.90;;;;;;4997911;28;20461;-53
2022/01/12 06:56:42;;;;;;;212.35;36.15;;;3.10;99.90;;;;;;4994666;28;20061;-58
2022/01/12 06:59:09;;;;;;;218.98;37.53;;;3.00;99.90;;;;;;5001567;28;20042;-55
2022/01/12 07:01:35;;;;;;;188.00;36.55;;;2.90;99.90;;;;;;4994659;28;20855;-56
2022/01/12 07:04:00;;;;;;;233.65;37.50;;;2.90;99.90;;;;;;4997480;28;20038;-55
2022/01/12 07:06:26;;;;;;;191.50;36.90;;;2.90;99.90;;;;;;4994544;28;20046;-55
2022/01/12 07:08:52;;;;;;;145.02;33.70;;;2.80;99.90;;;;;;4994509;28;20371;-55
2022/01/12 07:11:18;;;;;;;219.43;35.92;;;2.80;99.90;;;;;;4994422;28;20121;-56
2022/01/12 07:13:44;;;;;;;199.15;35.00;;;2.80;99.90;;;;;;4989667;28;20449;-53
2022/01/12 07:16:11;;;;;;;198.15;36.38;;;2.70;99.90;;;;;;4985343;28;20078;-54
2022/01/12 07:18:37;;;;;;;196.13;35.78;;;2.70;99.90;;;;;;4994288;28;20078;-56
2022/01/12 07:21:03;;;;;;;199.38;34.67;;;2.60;99.90;;;;;;5002850;28;20044;-54
2022/01/12 07:23:29;;;;;;;243.63;36.53;;;2.60;99.90;;;;;;5012933;28;20030;-58
2022/01/12 07:25:55;;;;;;;126.82;31.85;;;2.50;99.90;;;;;;4994449;28;20081;-56
2022/01/12 07:28:21;;;;;;;131.48;32.35;;;2.50;99.90;;;;;;5006276;28;20061;-56
2022/01/12 07:30:47;;;;;;;145.18;32.33;;;2.50;99.90;;;;;;5013458;28;20045;-54
2022/01/12 07:33:14;;;;;;;240.40;35.42;;;2.40;99.90;;;;;;5013473;28;20038;-56
2022/01/12 07:35:41;;;;;;;217.32;34.40;;;2.40;99.90;;;;;;5009683;28;20465;-54
2022/01/12 07:38:07;;;;;;;139.07;30.23;;;2.40;99.90;;;;;;5010914;28;20469;-58
2022/01/12 07:40:35;;;;;;;157.30;33.35;;;2.50;99.90;;;;;;5001206;28;20129;-54
2022/01/12 07:43:05;;;;;;;119.28;28.33;;;2.40;99.90;;;;;;5011630;28;20034;-55
2022/01/12 07:45:31;;;;;;;107.25;27.67;;;2.40;99.90;;;;;;4994118;28;20042;-54
2022/01/12 07:47:57;;;;;;;114.47;27.80;;;2.40;99.90;;;;;;4993998;28;20057;-56
2022/01/12 07:50:22;;;;;;;109.97;28.63;;;2.40;99.90;;;;;;5002799;28;20041;-55
2022/01/12 07:52:53;;;;;;;159.32;32.28;;;2.40;99.90;;;;;;4994555;28;20057;-57
2022/01/12 07:55:22;;;;;;;154.80;31.77;;;2.50;99.90;;;;;;5004088;28;20088;-54
2022/01/12 07:57:49;;;;;;;225.82;32.30;;;2.50;99.90;;;;;;5009493;28;20042;-55
2022/01/12 08:00:16;;;;;;;313.20;35.63;;;2.60;99.90;;;;;;5009755;28;20038;-57
2022/01/12 08:02:41;;;;;;;382.25;37.42;;;2.60;99.90;;;;;;4999918;28;20042;-53
2022/01/12 08:05:08;;;;;;;281.40;34.90;;;2.60;99.90;;;;;;5007180;28;20038;-54
2022/01/12 08:07:36;;;;;;;422.95;36.97;;;2.70;99.90;;;;;;5012569;28;20041;-56
2022/01/12 08:10:07;;;;;;;508.17;40.63;;;2.70;99.90;;;;;;5003277;28;20478;-54
2022/01/12 08:12:33;;;;;;;470.15;38.88;;;2.70;99.90;;;;;;4997251;28;20050;-56
2022/01/12 08:14:58;;;;;;;369.85;33.08;;;2.80;99.90;;;;;;4993095;28;20049;-55
2022/01/12 08:17:24;;;;;;;355.60;36.75;;;2.70;99.90;;;;;;4994501;28;20193;-55
2022/01/12 08:19:53;;;;;;;438.40;38.75;;;2.70;99.90;;;;;;5007044;28;20379;-56
2022/01/12 08:22:19;;;;;;;134.70;26.80;;;2.70;99.90;;;;;;4993352;28;20398;-54
2022/01/12 08:24:45;;;;;;;292.42;32.78;;;2.70;99.90;;;;;;5003110;28;20038;-57
2022/01/12 08:27:11;;;;;;;420.48;38.50;;;2.80;99.90;;;;;;5004774;28;20053;-56
2022/01/12 08:29:37;;;;;;;409.98;39.88;;;2.80;99.90;;;;;;4997923;28;20046;-58
2022/01/12 08:32:03;;;;;;;373.38;37.67;;;2.80;99.90;;;;;;5011541;28;20042;-56
2022/01/12 08:34:29;;;;;;;425.65;36.72;;;2.80;99.90;;;;;;4998605;28;20363;-56
2022/01/12 08:36:54;;;;;;;459.63;38.92;;;2.80;99.90;;;;;;5005563;28;20089;-54
2022/01/12 08:39:21;;;;;;;333.52;33.42;;;2.80;99.90;;;;;;5008548;28;20048;-56
2022/01/12 08:41:46;;;;;;;512.85;40.63;;;2.80;99.90;;;;;;5001761;28;20041;-54
2022/01/12 08:44:12;;;;;;;444.13;39.28;;;2.80;99.90;;;;;;5004611;28;20042;-56
2022/01/12 08:46:39;;;;;;;458.58;40.25;;;2.80;99.90;;;;;;5001275;28;20037;-57
2022/01/12 08:49:05;;;;;;;428.45;38.03;;;2.80;99.90;;;;;;4996551;28;20030;-54
2022/01/12 08:51:31;;;;;;;445.20;37.65;;;2.80;99.90;;;;;;4984459;28;20509;-53
2022/01/12 08:53:57;;;;;;;522.83;43.80;;;2.80;99.90;;;;;;4998842;28;20042;-57
2022/01/12 08:56:22;;;;;;;520.58;45.67;;;2.70;99.90;;;;;;5002239;28;20100;-55
2022/01/12 08:58:49;;;;;;;505.88;46.50;;;2.80;99.90;;;;;;5000413;28;20046;-55
2022/01/12 09:01:15;;;;;;;544.03;47.35;;;2.80;99.90;;;;;;4993163;28;20034;-56
2022/01/12 09:03:41;;;;;;;630.70;51.38;;;2.80;99.90;;;;;;4994362;28;20045;-56
2022/01/12 09:06:07;;;;;;;510.23;46.88;;;2.80;99.90;;;;;;4992931;28;21372;-55
2022/01/12 09:08:34;;;;;;;549.67;46.92;;;3.00;99.90;;;;;;5000501;28;20449;-52
2022/01/12 09:11:00;;;;;;;528.20;46.47;;;2.80;99.90;;;;;;4973898;28;20042;-58
2022/01/12 09:16:24;;;;;;;525.22;43.08;;;2.90;99.90;;;;;;4960187;28;20060;-55
2022/01/12 09:18:49;;;;;;;508.60;43.35;;;2.90;99.90;;;;;;4959810;28;20400;-56
2022/01/12 09:21:15;;;;;;;474.55;43.05;;;2.90;99.90;;;;;;4963212;28;20039;-57
2022/01/12 09:23:43;;;;;;;390.13;35.58;;;2.90;99.90;;;;;;4961891;28;20087;-54
2022/01/12 09:26:09;;;;;;;402.52;37.17;;;3.00;99.90;;;;;;4963997;28;20053;-56
2022/01/12 09:28:35;;;;;;;402.65;39.03;;;3.00;99.90;;;;;;4962098;28;20038;-54
2022/01/12 09:31:00;;;;;;;426.88;40.40;;;3.00;99.90;;;;;;4960792;28;20062;-54
2022/01/12 09:33:26;;;;;;;465.40;40.83;;;3.10;99.90;;;;;;4961386;28;20034;-54
2022/01/12 09:35:53;;;;;;;404.38;39.70;;;3.10;99.90;;;;;;4962843;28;20046;-57
2022/01/12 09:38:20;;;;;;;325.00;36.80;;;3.20;99.90;;;;;;4961820;28;20047;-57
2022/01/12 09:40:50;;;;;;;202.15;33.08;;;3.20;99.90;;;;;;4958403;28;20546;-56
2022/01/12 09:43:16;;;;;;;354.05;41.35;;;3.20;99.90;;;;;;4953395;28;20514;-55
2022/01/12 09:45:49;;;;;;;450.63;46.10;;;3.30;99.90;;;;;;4951146;28;20102;-55
2022/01/12 09:48:16;;;;;;;399.85;41.67;;;3.30;99.90;;;;;;4960133;28;20038;-55
2022/01/12 09:50:41;;;;;;;393.05;43.42;;;3.30;99.90;;;;;;4948396;28;20051;-55
2022/01/12 09:53:07;;;;;;;337.02;39.72;;;3.40;99.90;;;;;;4957881;28;20041;-55
2022/01/12 09:55:33;;;;;;;310.05;38.08;;;3.40;99.90;;;;;;4961186;28;20402;-57
2022/01/12 09:57:59;;;;;;;310.30;39.13;;;3.40;99.90;;;;;;4964810;28;20085;-55
2022/01/12 10:00:27;;;;;;;358.65;40.63;;;3.40;99.90;;;;;;4972468;28;20074;-54
2022/01/12 10:02:53;;;;;;;358.30;39.63;;;3.40;99.90;;;;;;4972340;28;20351;-57
2022/01/12 10:05:31;;;;;;;280.17;36.15;;;3.40;99.90;;;;;;4971169;28;20490;-57
2022/01/12 10:08:12;;;;;;;412.27;41.72;;;3.40;99.90;;;;;;4955445;28;20050;-56
2022/01/12 10:10:38;;;;;;;346.75;39.40;;;3.40;99.90;;;;;;4952936;28;20141;-56
2022/01/12 10:13:04;;;;;;;331.95;37.92;;;3.80;99.90;;;;;;4958206;28;20082;-56
2022/01/12 10:15:30;;;;;;;201.20;33.13;;;3.50;99.90;;;;;;4967099;28;20498;-57
2022/01/12 10:18:01;;;;;;;384.08;40.22;;;3.50;99.90;;;;;;4970775;28;20046;-56
2022/01/12 10:20:27;;;;;;;272.77;32.90;;;3.50;99.90;;;;;;4971888;28;20047;-57
2022/01/12 10:23:10;;;;;;;243.48;30.70;;;3.50;99.90;;;;;;4971954;28;20486;-54
2022/01/12 10:25:37;;;;;;;311.92;34.30;;;3.50;99.90;;;;;;4969713;28;20121;-52
2022/01/12 10:28:16;;;;;;;265.00;31.52;;;3.60;99.90;;;;;;4958192;28;20050;-57
2022/01/12 10:31:15;;;;;;;278.25;30.65;;;3.60;99.90;;;;;;4963624;28;20386;-59
2022/01/12 10:33:40;;;;;;;192.95;26.15;;;3.60;99.90;;;;;;4963931;28;20141;-55
2022/01/12 10:36:06;;;;;;;200.07;28.35;;;3.60;99.90;;;;;;4964834;28;20482;-56
2022/01/12 10:38:32;;;;;;;154.63;25.33;;;3.80;99.90;;;;;;4962810;28;20046;-56
2022/01/12 10:41:01;;;;;;;143.52;24.50;;;3.70;99.90;;;;;;4962029;28;20463;-55
2022/01/12 10:43:28;;;;;;;129.27;22.15;;;3.70;99.90;;;;;;4957313;28;20027;-56
2022/01/12 10:45:54;;;;;;;127.13;21.10;;;3.80;99.90;;;;;;4962494;28;20037;-57
2022/01/12 10:48:20;;;;;;;179.30;22.15;;;3.80;99.90;;;;;;4958945;28;20046;-55
2022/01/12 10:50:57;;;;;;;142.88;19.77;;;3.80;99.90;;;;;;4961685;28;20119;-54
2022/01/12 10:53:28;;;;;;;134.05;19.08;;;3.80;99.90;;;;;;4964086;28;20093;-56
2022/01/12 10:56:11;;;;;;;143.85;19.75;;;3.70;99.90;;;;;;4965255;28;20049;-57
2022/01/12 10:58:42;;;;;;;168.47;20.33;;;3.80;99.90;;;;;;4965461;28;20051;-56
2022/01/12 11:01:10;;;;;;;173.05;19.67;;;3.80;99.90;;;;;;4964997;28;20662;-54
2022/01/12 11:03:37;;;;;;;145.20;18.77;;;3.80;99.90;;;;;;4965683;28;20062;-54
2022/01/12 11:06:04;;;;;;;191.13;18.67;;;3.80;99.90;;;;;;4965722;28;20041;-56
2022/01/12 11:08:30;;;;;;;221.75;20.20;;;3.80;99.90;;;;;;4965894;28;20053;-55
2022/01/12 11:10:58;;;;;;;280.08;20.38;;;3.80;99.90;;;;;;4964528;28;20077;-54
2022/01/12 11:13:25;;;;;;;168.30;16.50;;;3.80;99.90;;;;;;4960256;28;20501;-53
2022/01/12 11:15:51;;;;;;;151.52;17.73;;;3.80;99.90;;;;;;4951870;28;20435;-55
2022/01/12 11:18:21;;;;;;;158.10;18.83;;;3.70;99.90;;;;;;4951781;28;20043;-58
2022/01/12 11:20:50;;;;;;;160.43;18.88;;;3.80;99.90;;;;;;4952359;28;21297;-54
2022/01/12 11:23:18;;;;;;;124.38;19.48;;;3.80;99.90;;;;;;4959608;28;20322;-56
2022/01/12 11:25:49;;;;;;;130.68;19.15;;;3.90;99.90;;;;;;4963851;28;20489;-57
2022/01/12 11:28:22;;;;;;;120.70;18.55;;;3.90;99.90;;;;;;4963923;28;20041;-57
2022/01/12 11:30:51;;;;;;;120.88;18.17;;;4.00;99.90;;;;;;4964137;28;20035;-55
2022/01/12 11:33:23;;;;;;;115.25;19.17;;;4.00;99.90;;;;;;4962526;28;20058;-57
2022/01/12 11:35:52;;;;;;;119.15;19.83;;;4.10;99.90;;;;;;4961891;28;20035;-53
2022/01/12 11:38:27;;;;;;;121.28;20.02;;;4.10;99.90;;;;;;4961603;28;20043;-56
2022/01/12 11:40:55;;;;;;;137.50;20.77;;;4.10;99.90;;;;;;4962538;28;20115;-55
2022/01/12 11:43:30;;;;;;;105.35;19.52;;;4.20;99.90;;;;;;4960879;28;20090;-58
2022/01/12 11:46:06;;;;;;;;;;;4.20;99.90;;;;;;4963797;28;20426;-57
2022/01/12 11:48:35;;;;;;;123.03;18.13;;;4.20;99.90;;;;;;4961810;28;20278;-53
2022/01/12 11:51:01;;;;;;;95.45;16.50;;;4.30;99.90;;;;;;4961175;28;20031;-54
2022/01/12 11:53:28;;;;;;;111.13;17.60;;;4.30;99.90;;;;;;4963267;28;20041;-53
2022/01/12 11:55:54;;;;;;;105.85;19.00;;;4.30;99.90;;;;;;4962953;28;20117;-53
2022/01/12 11:58:22;;;;;;;140.35;19.85;;;4.30;99.90;;;;;;4960779;28;20562;-54
2022/01/12 12:00:47;;;;;;;148.57;21.38;;;4.30;99.90;;;;;;4960652;28;20398;-58
2022/01/12 12:03:15;;;;;;;124.32;17.20;;;4.50;99.90;;;;;;4961006;28;20031;-54
2022/01/12 12:05:41;;;;;;;109.35;14.77;;;4.40;99.90;;;;;;4963192;28;20125;-57
2022/01/12 12:08:07;;;;;;;128.70;16.05;;;4.40;99.90;;;;;;4962309;28;20575;-55
2022/01/12 12:10:39;;;;;;;123.50;16.83;;;4.40;99.90;;;;;;4962712;28;20473;-55
2022/01/12 12:13:06;;;;;;;137.07;16.45;;;4.40;99.90;;;;;;4961508;28;20062;-56
2022/01/12 12:15:33;;;;;;;134.93;19.02;;;4.40;99.90;;;;;;4962475;28;20047;-57
2022/01/12 12:18:03;;;;;;;125.50;18.23;;;4.50;99.90;;;;;;4962375;28;20054;-59
2022/01/12 12:20:31;;;;;;;182.82;19.63;;;4.50;99.90;;;;;;4960894;28;20629;-56
2022/01/12 12:22:58;;;;;;;138.00;18.63;;;4.60;99.90;;;;;;4959897;28;20092;-56
2022/01/12 12:25:27;;;;;;;150.13;19.05;;;4.60;99.90;;;;;;4947675;28;20094;-56
2022/01/12 12:28:01;;;;;;;111.88;16.50;;;4.60;99.90;;;;;;4956968;28;20098;-55
2022/01/12 12:30:29;;;;;;;138.15;18.15;;;4.60;99.90;;;;;;4953651;28;20040;-56
2022/01/12 12:33:07;;;;;;;124.80;17.50;;;4.60;99.90;;;;;;4949784;28;20035;-55
2022/01/12 12:35:33;;;;;;;150.02;17.73;;;4.60;99.90;;;;;;4952024;28;20039;-57
2022/01/12 12:38:19;;;;;;;131.73;16.15;;;4.60;99.90;;;;;;4952456;28;20487;-57
2022/01/12 12:40:53;;;;;;;116.05;15.80;;;4.60;99.90;;;;;;4954609;28;20047;-57
2022/01/12 12:43:32;;;;;;;170.93;17.33;;;4.60;99.90;;;;;;4973160;28;20042;-55
2022/01/12 12:46:01;;;;;;;133.10;16.40;;;4.60;99.90;;;;;;4973104;28;20062;-56
2022/01/12 12:48:30;;;;;;;134.98;15.82;;;4.60;99.90;;;;;;4972655;28;20039;-53
2022/01/12 12:51:01;;;;;;;143.50;17.00;;;4.60;99.90;;;;;;4972891;28;20035;-56
2022/01/12 12:53:29;;;;;;;116.40;15.68;;;4.60;99.90;;;;;;4972324;28;20066;-55
2022/01/12 12:55:54;;;;;;;117.72;17.20;;;4.60;99.90;;;;;;4972814;28;20061;-55
2022/01/12 12:58:24;;;;;;;128.55;18.98;;;4.60;99.90;;;;;;4972157;28;20047;-56
2022/01/12 13:00:49;;;;;;;138.27;19.15;;;4.60;99.90;;;;;;4971621;28;20031;-54
2022/01/12 13:03:15;;;;;;;103.53;17.85;;;4.60;99.90;;;;;;4972780;28;20042;-52
2022/01/12 13:05:41;;;;;;;78.72;15.93;;;4.70;99.90;;;;;;4972431;28;20556;-56
2022/01/12 13:08:08;;;;;;;104.97;17.33;;;4.70;99.90;;;;;;4972587;28;20078;-56
2022/01/12 13:10:34;;;;;;;114.43;18.67;;;4.70;99.90;;;;;;4959971;28;20354;-55
2022/01/12 13:13:05;;;;;;;115.20;18.27;;;4.70;99.90;;;;;;4955668;28;20123;-56
2022/01/12 13:15:32;;;;;;;91.88;13.70;;;4.80;99.90;;;;;;4953970;28;20051;-55
2022/01/12 13:18:07;;;;;;;80.43;14.98;;;4.80;99.90;;;;;;4938922;28;20043;-55
2022/01/12 13:23:25;;;;;;;60.33;13.60;;;4.70;99.90;;;;;;4953058;28;20134;-53
2022/01/12 13:25:56;;;;;;;85.50;15.55;;;4.70;99.90;;;;;;4952680;28;20043;-54
2022/01/12 13:28:23;;;;;;;81.95;15.82;;;4.70;99.90;;;;;;4952612;28;20102;-56
2022/01/12 13:30:57;;;;;;;106.30;17.08;;;4.60;99.90;;;;;;4956291;28;20050;-57
2022/01/12 13:33:31;;;;;;;105.15;16.52;;;4.60;99.90;;;;;;4953035;28;20054;-56
2022/01/12 13:35:58;;;;;;;115.22;16.67;;;4.60;99.90;;;;;;4953225;28;20478;-56
2022/01/12 13:38:31;;;;;;;132.98;16.80;;;4.70;99.90;;;;;;4955388;28;20566;-57
2022/01/12 13:41:12;;;;;;;78.63;15.00;;;4.70;99.90;;;;;;4953524;28;20039;-55
2022/01/12 13:43:40;;;;;;;83.53;13.68;;;4.60;99.90;;;;;;4952837;28;20047;-55
2022/01/12 13:46:18;;;;;;;81.47;14.48;;;4.70;99.90;;;;;;4952760;28;20047;-55
2022/01/12 13:49:21;;;;;;;96.68;16.77;;;4.60;99.90;;;;;;4952671;28;20047;-51
2022/01/12 13:52:02;;;;;;;74.28;14.48;;;4.60;99.90;;;;;;4967394;28;20043;-53
2022/01/12 13:54:31;;;;;;;75.88;13.43;;;4.70;99.90;;;;;;4952654;28;20069;-52
2022/01/12 13:56:58;;;;;;;104.70;16.55;;;4.60;99.90;;;;;;4953668;28;20073;-56
2022/01/12 13:59:27;;;;;;;92.85;14.23;;;4.60;99.90;;;;;;4952453;28;20483;-58
2022/01/12 14:01:54;;;;;;;84.68;14.80;;;4.70;99.90;;;;;;4952806;28;20451;-54
2022/01/12 14:04:37;;;;;;;89.97;15.23;;;4.70;99.90;;;;;;4953273;28;20040;-55
2022/01/12 14:07:06;;;;;;;89.88;15.07;;;4.70;99.90;;;;;;4956464;28;20385;-56
2022/01/12 14:09:39;;;;;;;102.30;16.45;;;4.70;99.90;;;;;;4956770;28;20035;-57
2022/01/12 14:12:17;;;;;;;85.78;15.73;;;4.70;99.90;;;;;;4974188;28;20038;-55
2022/01/12 14:15:00;;;;;;;114.50;18.95;;;4.70;99.90;;;;;;4975340;28;20073;-56
2022/01/12 14:17:33;;;;;;;99.97;18.20;;;4.70;99.90;;;;;;4960420;28;20061;-56
2022/01/12 14:20:04;;;;;;;93.40;16.63;;;4.70;99.90;;;;;;4957657;28;20035;-54
2022/01/12 14:22:51;;;;;;;93.72;17.73;;;4.70;99.90;;;;;;4960599;28;20102;-54
2022/01/12 14:25:39;;;;;;;138.70;19.20;;;4.80;99.90;;;;;;4957626;28;20047;-54